sensor_id;sensor_type;location;lat;lon;timestamp;temperature;humidity
18456;DHT22;9357;49.900;8.208;2022-12-07T00:00:00;3.80;99.90
18456;DHT22;9357;49.900;8.208;2022-12-07T00:01:35;3.80;99.90
18456;DHT22;9357;49.900;8.208;2022-12-07T00:03:07;3.80;99.90
18456;DHT22;9357;49.900;8.208;2022-12-07T00:04:40;3.80;99.90
18456;DHT22;9357;49.900;8.208;2022-12-07T00:06:14;3.90;99.90
18456;DHT22;9357;49.900;8.208;2022-12-07T00:07:47;3.80;99.90
18456;DHT22;9357;49.900;8.208;2022-12-07T00:09:21;3.80;99.90
18456;DHT22;9357;49.900;8.208;2022-12-07T00:10:54;3.90;99.90
18456;DHT22;9357;49.900;8.208;2022-12-07T00:12:28;3.90;99.90
18456;DHT22;9357;49.900;8.208;2022-12-07T00:14:03;3.90;99.90
18456;DHT22;9357;49.900;8.208;2022-12-07T00:15:37;3.90;99.90
18456;DHT22;9357;49.900;8.208;2022-12-07T00:17:10;3.90;99.90
18456;DHT22;9357;49.900;8.208;2022-12-07T00:18:43;3.90;99.90
18456;DHT22;9357;49.900;8.208;2022-12-07T00:20:16;3.80;99.90
18456;DHT22;9357;49.900;8.208;2022-12-07T00:21:49;3.90;99.90
18456;DHT22;9357;49.900;8.208;2022-12-07T00:23:21;3.90;99.90
18456;DHT22;9357;49.900;8.208;2022-12-07T00:24:53;3.80;99.90
18456;DHT22;9357;49.900;8.208;2022-12-07T00:26:28;3.80;99.90
18456;DHT22;9357;49.900;8.208;2022-12-07T00:28:02;3.80;99.90
18456;DHT22;9357;49.900;8.208;2022-12-07T00:29:34;3.80;99.90
18456;DHT22;9357;49.900;8.208;2022-12-07T00:31:10;3.80;99.90
18456;DHT22;9357;49.900;8.208;2022-12-07T00:32:44;3.80;99.90
18456;DHT22;9357;49.900;8.208;2022-12-07T00:34:19;3.80;99.90
18456;DHT22;9357;49.900;8.208;2022-12-07T00:35:55;3.80;99.90
18456;DHT22;9357;49.900;8.208;2022-12-07T00:37:27;3.80;99.90
18456;DHT22;9357;49.900;8.208;2022-12-07T00:39:00;3.90;99.90
18456;DHT22;9357;49.900;8.208;2022-12-07T00:40:33;3.90;99.90
18456;DHT22;9357;49.900;8.208;2022-12-07T00:42:06;3.90;99.90
18456;DHT22;9357;49.900;8.208;2022-12-07T00:43:41;3.90;99.90
18456;DHT22;9357;49.900;8.208;2022-12-07T00:45:14;3.80;99.90
18456;DHT22;9357;49.900;8.208;2022-12-07T00:46:47;3.80;99.90
18456;DHT22;9357;49.900;8.208;2022-12-07T00:48:20;3.80;99.90
18456;DHT22;9357;49.900;8.208;2022-12-07T00:49:52;3.80;99.90
18456;DHT22;9357;49.900;8.208;2022-12-07T00:51:26;3.80;99.90
18456;DHT22;9357;49.900;8.208;2022-12-07T00:52:58;3.80;99.90
18456;DHT22;9357;49.900;8.208;2022-12-07T00:54:30;3.80;99.90
18456;DHT22;9357;49.900;8.208;2022-12-07T00:56:05;3.80;99.90
18456;DHT22;9357;49.900;8.208;2022-12-07T00:57:38;3.80;99.90
18456;DHT22;9357;49.900;8.208;2022-12-07T00:59:13;3.80;99.90
18456;DHT22;9357;49.900;8.208;2022-12-07T01:00:46;3.80;99.90
18456;DHT22;9357;49.900;8.208;2022-12-07T01:02:18;3.80;99.90
18456;DHT22;9357;49.900;8.208;2022-12-07T01:03:51;3.70;99.90
18456;DHT22;9357;49.900;8.208;2022-12-07T01:05:24;3.70;99.90
18456;DHT22;9357;49.900;8.208;2022-12-07T01:06:55;3.70;99.90
18456;DHT22;9357;49.900;8.208;2022-12-07T01:08:28;3.70;99.90
18456;DHT22;9357;49.900;8.208;2022-12-07T01:10:01;3.70;99.90
18456;DHT22;9357;49.900;8.208;2022-12-07T01:11:34;3.80;99.90
18456;DHT22;9357;49.900;8.208;2022-12-07T01:13:07;3.70;99.90
18456;DHT22;9357;49.900;8.208;2022-12-07T01:14:41;3.70;99.90
18456;DHT22;9357;49.900;8.208;2022-12-07T01:16:15;3.70;99.90
18456;DHT22;9357;49.900;8.208;2022-12-07T01:17:49;3.70;99.90
18456;DHT22;9357;49.900;8.208;2022-12-07T01:19:21;3.70;99.90
18456;DHT22;9357;49.900;8.208;2022-12-07T01:20:58;3.70;99.90
18456;DHT22;9357;49.900;8.208;2022-12-07T01:22:30;3.60;99.90
18456;DHT22;9357;49.900;8.208;2022-12-07T01:24:04;3.60;99.90
18456;DHT22;9357;49.900;8.208;2022-12-07T01:25:37;3.60;99.90
18456;DHT22;9357;49.900;8.208;2022-12-07T01:27:10;3.60;99.90
18456;DHT22;9357;49.900;8.208;2022-12-07T01:28:43;3.60;99.90
18456;DHT22;9357;49.900;8.208;2022-12-07T01:30:18;3.60;99.90
18456;DHT22;9357;49.900;8.208;2022-12-07T01:31:50;3.60;99.90
18456;DHT22;9357;49.900;8.208;2022-12-07T01:33:23;3.60;99.90
18456;DHT22;9357;49.900;8.208;2022-12-07T01:34:54;3.60;99.90
18456;DHT22;9357;49.900;8.208;2022-12-07T01:36:29;3.60;99.90
18456;DHT22;9357;49.900;8.208;2022-12-07T01:38:01;3.60;99.90
18456;DHT22;9357;49.900;8.208;2022-12-07T01:39:33;3.60;99.90
18456;DHT22;9357;49.900;8.208;2022-12-07T01:41:06;3.60;99.90
18456;DHT22;9357;49.900;8.208;2022-12-07T01:42:39;3.50;99.90
18456;DHT22;9357;49.900;8.208;2022-12-07T01:44:15;3.60;99.90
18456;DHT22;9357;49.900;8.208;2022-12-07T01:45:49;3.50;99.90
18456;DHT22;9357;49.900;8.208;2022-12-07T01:47:21;3.60;99.90
18456;DHT22;9357;49.900;8.208;2022-12-07T01:48:53;3.50;99.90
18456;DHT22;9357;49.900;8.208;2022-12-07T01:50:28;3.50;99.90
18456;DHT22;9357;49.900;8.208;2022-12-07T01:52:13;3.50;99.90
18456;DHT22;9357;49.900;8.208;2022-12-07T01:53:47;3.50;99.90
18456;DHT22;9357;49.900;8.208;2022-12-07T01:55:20;3.50;99.90
18456;DHT22;9357;49.900;8.208;2022-12-07T01:56:54;3.50;99.90
18456;DHT22;9357;49.900;8.208;2022-12-07T01:58:29;3.50;99.90
18456;DHT22;9357;49.900;8.208;2022-12-07T02:00:02;3.50;99.90
18456;DHT22;9357;49.900;8.208;2022-12-07T02:01:37;3.50;99.90
18456;DHT22;9357;49.900;8.208;2022-12-07T02:03:15;3.50;99.90
18456;DHT22;9357;49.900;8.208;2022-12-07T02:04:51;3.60;99.90
18456;DHT22;9357;49.900;8.208;2022-12-07T02:06:25;3.60;99.90
18456;DHT22;9357;49.900;8.208;2022-12-07T02:07:58;3.60;99.90
18456;DHT22;9357;49.900;8.208;2022-12-07T02:09:31;3.50;99.90
18456;DHT22;9357;49.900;8.208;2022-12-07T02:11:05;3.60;99.90
18456;DHT22;9357;49.900;8.208;2022-12-07T02:12:39;3.50;99.90
18456;DHT22;9357;49.900;8.208;2022-12-07T02:14:11;3.50;99.90
18456;DHT22;9357;49.900;8.208;2022-12-07T02:15:51;3.60;99.90
18456;DHT22;9357;49.900;8.208;2022-12-07T02:17:37;3.60;99.90
18456;DHT22;9357;49.900;8.208;2022-12-07T02:19:36;3.60;99.90
18456;DHT22;9357;49.900;8.208;2022-12-07T02:21:17;3.60;99.90
18456;DHT22;9357;49.900;8.208;2022-12-07T02:23:06;3.60;99.90
18456;DHT22;9357;49.900;8.208;2022-12-07T02:24:48;3.60;99.90
18456;DHT22;9357;49.900;8.208;2022-12-07T02:28:36;3.60;99.90
18456;DHT22;9357;49.900;8.208;2022-12-07T02:30:11;3.60;99.90
18456;DHT22;9357;49.900;8.208;2022-12-07T02:31:50;3.70;99.90
18456;DHT22;9357;49.900;8.208;2022-12-07T02:33:29;3.70;99.90
18456;DHT22;9357;49.900;8.208;2022-12-07T02:35:06;3.60;99.90
18456;DHT22;9357;49.900;8.208;2022-12-07T02:36:43;3.70;99.90
18456;DHT22;9357;49.900;8.208;2022-12-07T02:38:22;3.70;99.90
18456;DHT22;9357;49.900;8.208;2022-12-07T02:40:00;3.70;99.90
18456;DHT22;9357;49.900;8.208;2022-12-07T02:41:38;3.70;99.90
18456;DHT22;9357;49.900;8.208;2022-12-07T02:43:17;3.70;99.90
18456;DHT22;9357;49.900;8.208;2022-12-07T02:44:52;3.70;99.90
18456;DHT22;9357;49.900;8.208;2022-12-07T02:46:28;3.70;99.90
18456;DHT22;9357;49.900;8.208;2022-12-07T02:48:03;3.70;99.90
18456;DHT22;9357;49.900;8.208;2022-12-07T02:49:38;3.70;99.90
18456;DHT22;9357;49.900;8.208;2022-12-07T02:51:12;3.70;99.90
18456;DHT22;9357;49.900;8.208;2022-12-07T02:52:44;3.70;99.90
18456;DHT22;9357;49.900;8.208;2022-12-07T02:54:19;3.80;99.90
18456;DHT22;9357;49.900;8.208;2022-12-07T02:55:52;3.70;99.90
18456;DHT22;9357;49.900;8.208;2022-12-07T02:57:39;3.80;99.90
18456;DHT22;9357;49.900;8.208;2022-12-07T02:59:17;3.80;99.90
18456;DHT22;9357;49.900;8.208;2022-12-07T03:01:03;3.80;99.90
18456;DHT22;9357;49.900;8.208;2022-12-07T03:02:50;3.80;99.90
18456;DHT22;9357;49.900;8.208;2022-12-07T03:04:34;3.80;99.90
18456;DHT22;9357;49.900;8.208;2022-12-07T03:06:14;3.80;99.90
18456;DHT22;9357;49.900;8.208;2022-12-07T03:07:55;3.80;99.90
18456;DHT22;9357;49.900;8.208;2022-12-07T03:09:37;3.80;99.90
18456;DHT22;9357;49.900;8.208;2022-12-07T03:11:14;3.80;99.90
18456;DHT22;9357;49.900;8.208;2022-12-07T03:12:57;3.80;99.90
18456;DHT22;9357;49.900;8.208;2022-12-07T03:14:37;3.80;99.90
18456;DHT22;9357;49.900;8.208;2022-12-07T03:16:15;3.80;99.90
18456;DHT22;9357;49.900;8.208;2022-12-07T03:17:51;3.80;99.90
18456;DHT22;9357;49.900;8.208;2022-12-07T03:19:26;3.80;99.90
18456;DHT22;9357;49.900;8.208;2022-12-07T03:21:02;3.80;99.90
18456;DHT22;9357;49.900;8.208;2022-12-07T03:22:38;3.80;99.90
18456;DHT22;9357;49.900;8.208;2022-12-07T03:24:16;3.80;99.90
18456;DHT22;9357;49.900;8.208;2022-12-07T03:25:53;3.80;99.90
18456;DHT22;9357;49.900;8.208;2022-12-07T03:27:34;3.80;99.90
18456;DHT22;9357;49.900;8.208;2022-12-07T03:29:12;3.80;99.90
18456;DHT22;9357;49.900;8.208;2022-12-07T03:30:51;3.80;99.90
18456;DHT22;9357;49.900;8.208;2022-12-07T03:32:29;3.80;99.90
18456;DHT22;9357;49.900;8.208;2022-12-07T03:34:15;3.80;99.90
18456;DHT22;9357;49.900;8.208;2022-12-07T03:35:52;3.80;99.90
18456;DHT22;9357;49.900;8.208;2022-12-07T03:37:31;3.80;99.90
18456;DHT22;9357;49.900;8.208;2022-12-07T03:39:13;3.80;99.90
18456;DHT22;9357;49.900;8.208;2022-12-07T03:40:54;3.80;99.90
18456;DHT22;9357;49.900;8.208;2022-12-07T03:42:29;3.90;99.90
18456;DHT22;9357;49.900;8.208;2022-12-07T03:44:03;3.90;99.90
18456;DHT22;9357;49.900;8.208;2022-12-07T03:45:39;3.90;99.90
18456;DHT22;9357;49.900;8.208;2022-12-07T03:47:20;3.90;99.90
18456;DHT22;9357;49.900;8.208;2022-12-07T03:48:59;3.90;99.90
18456;DHT22;9357;49.900;8.208;2022-12-07T03:50:38;3.90;99.90
18456;DHT22;9357;49.900;8.208;2022-12-07T03:52:20;3.90;99.90
18456;DHT22;9357;49.900;8.208;2022-12-07T03:53:59;3.90;99.90
18456;DHT22;9357;49.900;8.208;2022-12-07T03:55:35;3.90;99.90
18456;DHT22;9357;49.900;8.208;2022-12-07T03:57:11;3.90;99.90
18456;DHT22;9357;49.900;8.208;2022-12-07T03:58:44;3.90;99.90
18456;DHT22;9357;49.900;8.208;2022-12-07T04:00:18;3.90;99.90
18456;DHT22;9357;49.900;8.208;2022-12-07T04:01:53;3.90;99.90
18456;DHT22;9357;49.900;8.208;2022-12-07T04:03:26;3.90;99.90
18456;DHT22;9357;49.900;8.208;2022-12-07T04:05:00;3.90;99.90
18456;DHT22;9357;49.900;8.208;2022-12-07T04:06:34;3.90;99.90
18456;DHT22;9357;49.900;8.208;2022-12-07T04:08:07;3.90;99.90
18456;DHT22;9357;49.900;8.208;2022-12-07T04:09:40;3.90;99.90
18456;DHT22;9357;49.900;8.208;2022-12-07T04:11:13;4.00;99.90
18456;DHT22;9357;49.900;8.208;2022-12-07T04:12:45;4.00;99.90
18456;DHT22;9357;49.900;8.208;2022-12-07T04:14:18;4.00;99.90
18456;DHT22;9357;49.900;8.208;2022-12-07T04:15:50;4.00;99.90
18456;DHT22;9357;49.900;8.208;2022-12-07T04:17:23;4.00;99.90
18456;DHT22;9357;49.900;8.208;2022-12-07T04:18:56;4.00;99.90
18456;DHT22;9357;49.900;8.208;2022-12-07T04:20:28;4.00;99.90
18456;DHT22;9357;49.900;8.208;2022-12-07T04:22:04;4.00;99.90
18456;DHT22;9357;49.900;8.208;2022-12-07T04:23:37;4.00;99.90
18456;DHT22;9357;49.900;8.208;2022-12-07T04:25:10;4.00;99.90
18456;DHT22;9357;49.900;8.208;2022-12-07T04:26:43;4.00;99.90
18456;DHT22;9357;49.900;8.208;2022-12-07T04:28:16;4.00;99.90
18456;DHT22;9357;49.900;8.208;2022-12-07T04:29:49;4.00;99.90
18456;DHT22;9357;49.900;8.208;2022-12-07T04:31:22;4.00;99.90
18456;DHT22;9357;49.900;8.208;2022-12-07T04:32:55;4.10;99.90
18456;DHT22;9357;49.900;8.208;2022-12-07T04:34:27;4.10;99.90
18456;DHT22;9357;49.900;8.208;2022-12-07T04:36:00;4.10;99.90
18456;DHT22;9357;49.900;8.208;2022-12-07T04:37:33;4.10;99.90
18456;DHT22;9357;49.900;8.208;2022-12-07T04:39:08;4.10;99.90
18456;DHT22;9357;49.900;8.208;2022-12-07T04:40:45;4.10;99.90
18456;DHT22;9357;49.900;8.208;2022-12-07T04:42:18;4.10;99.90
18456;DHT22;9357;49.900;8.208;2022-12-07T04:43:51;4.10;99.90
18456;DHT22;9357;49.900;8.208;2022-12-07T04:45:23;4.10;99.90
18456;DHT22;9357;49.900;8.208;2022-12-07T04:46:56;4.10;99.90
18456;DHT22;9357;49.900;8.208;2022-12-07T04:48:29;4.10;99.90
18456;DHT22;9357;49.900;8.208;2022-12-07T04:50:02;4.10;99.90
18456;DHT22;9357;49.900;8.208;2022-12-07T04:51:35;4.20;99.90
18456;DHT22;9357;49.900;8.208;2022-12-07T04:53:09;4.20;99.90
18456;DHT22;9357;49.900;8.208;2022-12-07T04:54:42;4.20;99.90
18456;DHT22;9357;49.900;8.208;2022-12-07T04:56:15;4.10;99.90
18456;DHT22;9357;49.900;8.208;2022-12-07T04:57:47;4.20;99.90
18456;DHT22;9357;49.900;8.208;2022-12-07T04:59:20;4.20;99.90
18456;DHT22;9357;49.900;8.208;2022-12-07T05:00:54;4.20;99.90
18456;DHT22;9357;49.900;8.208;2022-12-07T05:02:27;4.20;99.90
18456;DHT22;9357;49.900;8.208;2022-12-07T05:04:00;4.20;99.90
18456;DHT22;9357;49.900;8.208;2022-12-07T05:05:32;4.20;99.90
18456;DHT22;9357;49.900;8.208;2022-12-07T05:07:05;4.20;99.90
18456;DHT22;9357;49.900;8.208;2022-12-07T05:08:39;4.20;99.90
18456;DHT22;9357;49.900;8.208;2022-12-07T05:11:45;4.20;99.90
18456;DHT22;9357;49.900;8.208;2022-12-07T05:13:17;4.20;99.90
18456;DHT22;9357;49.900;8.208;2022-12-07T05:14:50;4.20;99.90
18456;DHT22;9357;49.900;8.208;2022-12-07T05:16:23;4.20;99.90
18456;DHT22;9357;49.900;8.208;2022-12-07T05:17:56;4.20;99.90
18456;DHT22;9357;49.900;8.208;2022-12-07T05:19:29;4.30;99.90
18456;DHT22;9357;49.900;8.208;2022-12-07T05:21:01;4.20;99.90
18456;DHT22;9357;49.900;8.208;2022-12-07T05:22:34;4.20;99.90
18456;DHT22;9357;49.900;8.208;2022-12-07T05:24:11;4.20;99.90
18456;DHT22;9357;49.900;8.208;2022-12-07T05:25:44;4.30;99.90
18456;DHT22;9357;49.900;8.208;2022-12-07T05:27:16;4.30;99.90
18456;DHT22;9357;49.900;8.208;2022-12-07T05:28:51;4.30;99.90
18456;DHT22;9357;49.900;8.208;2022-12-07T05:30:23;4.30;99.90
18456;DHT22;9357;49.900;8.208;2022-12-07T05:31:56;4.30;99.90
18456;DHT22;9357;49.900;8.208;2022-12-07T05:33:29;4.20;99.90
18456;DHT22;9357;49.900;8.208;2022-12-07T05:35:01;4.30;99.90
18456;DHT22;9357;49.900;8.208;2022-12-07T05:36:34;4.30;99.90
18456;DHT22;9357;49.900;8.208;2022-12-07T05:38:07;4.30;99.90
18456;DHT22;9357;49.900;8.208;2022-12-07T05:39:41;4.30;99.90
18456;DHT22;9357;49.900;8.208;2022-12-07T05:41:15;4.30;99.90
18456;DHT22;9357;49.900;8.208;2022-12-07T05:43:06;4.30;99.90
18456;DHT22;9357;49.900;8.208;2022-12-07T05:44:39;4.30;99.90
18456;DHT22;9357;49.900;8.208;2022-12-07T05:46:12;4.30;99.90
18456;DHT22;9357;49.900;8.208;2022-12-07T05:47:44;4.30;99.90
18456;DHT22;9357;49.900;8.208;2022-12-07T05:49:17;4.30;99.90
18456;DHT22;9357;49.900;8.208;2022-12-07T05:50:50;4.30;99.90
18456;DHT22;9357;49.900;8.208;2022-12-07T05:52:24;4.30;99.90
18456;DHT22;9357;49.900;8.208;2022-12-07T05:53:57;4.30;99.90
18456;DHT22;9357;49.900;8.208;2022-12-07T05:55:31;4.30;99.90
18456;DHT22;9357;49.900;8.208;2022-12-07T05:57:04;4.30;99.90
18456;DHT22;9357;49.900;8.208;2022-12-07T05:58:36;4.30;99.90
18456;DHT22;9357;49.900;8.208;2022-12-07T06:00:29;4.30;99.90
18456;DHT22;9357;49.900;8.208;2022-12-07T06:02:04;4.30;99.90
18456;DHT22;9357;49.900;8.208;2022-12-07T06:03:37;4.30;99.90
18456;DHT22;9357;49.900;8.208;2022-12-07T06:05:12;4.30;99.90
18456;DHT22;9357;49.900;8.208;2022-12-07T06:06:45;4.30;99.90
18456;DHT22;9357;49.900;8.208;2022-12-07T06:08:18;4.30;99.90
18456;DHT22;9357;49.900;8.208;2022-12-07T06:09:51;4.30;99.90
18456;DHT22;9357;49.900;8.208;2022-12-07T06:11:25;4.30;99.90
18456;DHT22;9357;49.900;8.208;2022-12-07T06:13:15;4.30;99.90
18456;DHT22;9357;49.900;8.208;2022-12-07T06:14:47;4.30;99.90
18456;DHT22;9357;49.900;8.208;2022-12-07T06:16:20;4.30;99.90
18456;DHT22;9357;49.900;8.208;2022-12-07T06:17:53;4.30;99.90
18456;DHT22;9357;49.900;8.208;2022-12-07T06:19:26;4.30;99.90
18456;DHT22;9357;49.900;8.208;2022-12-07T06:20:58;4.30;99.90
18456;DHT22;9357;49.900;8.208;2022-12-07T06:22:31;4.30;99.90
18456;DHT22;9357;49.900;8.208;2022-12-07T06:24:04;4.30;99.90
18456;DHT22;9357;49.900;8.208;2022-12-07T06:25:37;4.30;99.90
18456;DHT22;9357;49.900;8.208;2022-12-07T06:27:12;4.30;99.90
18456;DHT22;9357;49.900;8.208;2022-12-07T06:28:45;4.30;99.90
18456;DHT22;9357;49.900;8.208;2022-12-07T06:30:17;4.30;99.90
18456;DHT22;9357;49.900;8.208;2022-12-07T06:31:51;4.30;99.90
18456;DHT22;9357;49.900;8.208;2022-12-07T06:33:23;4.30;99.90
18456;DHT22;9357;49.900;8.208;2022-12-07T06:34:56;4.30;99.90
18456;DHT22;9357;49.900;8.208;2022-12-07T06:36:29;4.30;99.90
18456;DHT22;9357;49.900;8.208;2022-12-07T06:38:02;4.30;99.90
18456;DHT22;9357;49.900;8.208;2022-12-07T06:39:35;4.30;99.90
18456;DHT22;9357;49.900;8.208;2022-12-07T06:41:08;4.30;99.90
18456;DHT22;9357;49.900;8.208;2022-12-07T06:42:42;4.40;99.90
18456;DHT22;9357;49.900;8.208;2022-12-07T06:44:15;4.40;99.90
18456;DHT22;9357;49.900;8.208;2022-12-07T06:45:47;4.40;99.90
18456;DHT22;9357;49.900;8.208;2022-12-07T06:47:20;4.40;99.90
18456;DHT22;9357;49.900;8.208;2022-12-07T06:49:11;4.40;99.90
18456;DHT22;9357;49.900;8.208;2022-12-07T06:50:44;4.40;99.90
18456;DHT22;9357;49.900;8.208;2022-12-07T06:52:23;4.40;99.90
18456;DHT22;9357;49.900;8.208;2022-12-07T06:53:56;4.40;99.90
18456;DHT22;9357;49.900;8.208;2022-12-07T06:55:29;4.40;99.90
18456;DHT22;9357;49.900;8.208;2022-12-07T06:57:02;4.50;99.90
18456;DHT22;9357;49.900;8.208;2022-12-07T06:58:36;4.50;99.90
18456;DHT22;9357;49.900;8.208;2022-12-07T07:00:10;4.50;99.90
18456;DHT22;9357;49.900;8.208;2022-12-07T07:01:52;4.50;99.90
18456;DHT22;9357;49.900;8.208;2022-12-07T07:03:25;4.60;99.90
18456;DHT22;9357;49.900;8.208;2022-12-07T07:04:57;4.60;99.90
18456;DHT22;9357;49.900;8.208;2022-12-07T07:06:30;4.50;99.90
18456;DHT22;9357;49.900;8.208;2022-12-07T07:08:03;4.50;99.90
18456;DHT22;9357;49.900;8.208;2022-12-07T07:09:53;4.50;99.90
18456;DHT22;9357;49.900;8.208;2022-12-07T07:11:25;4.50;99.90
18456;DHT22;9357;49.900;8.208;2022-12-07T07:12:58;4.50;99.90
18456;DHT22;9357;49.900;8.208;2022-12-07T07:14:32;4.50;99.90
18456;DHT22;9357;49.900;8.208;2022-12-07T07:16:06;4.50;99.90
18456;DHT22;9357;49.900;8.208;2022-12-07T07:17:39;4.50;99.90
18456;DHT22;9357;49.900;8.208;2022-12-07T07:19:12;4.50;99.90
18456;DHT22;9357;49.900;8.208;2022-12-07T07:20:44;4.50;99.90
18456;DHT22;9357;49.900;8.208;2022-12-07T07:22:17;4.50;99.90
18456;DHT22;9357;49.900;8.208;2022-12-07T07:23:50;4.50;99.90
18456;DHT22;9357;49.900;8.208;2022-12-07T07:25:23;4.50;99.90
18456;DHT22;9357;49.900;8.208;2022-12-07T07:26:56;4.50;99.90
18456;DHT22;9357;49.900;8.208;2022-12-07T07:28:29;4.50;99.90
18456;DHT22;9357;49.900;8.208;2022-12-07T07:30:04;4.50;99.90
18456;DHT22;9357;49.900;8.208;2022-12-07T07:31:37;4.50;99.90
18456;DHT22;9357;49.900;8.208;2022-12-07T07:33:10;4.50;99.90
18456;DHT22;9357;49.900;8.208;2022-12-07T07:34:42;4.50;99.90
18456;DHT22;9357;49.900;8.208;2022-12-07T07:36:15;4.50;99.90
18456;DHT22;9357;49.900;8.208;2022-12-07T07:37:48;4.50;99.90
18456;DHT22;9357;49.900;8.208;2022-12-07T07:39:20;4.50;99.90
18456;DHT22;9357;49.900;8.208;2022-12-07T07:40:53;4.50;99.90
18456;DHT22;9357;49.900;8.208;2022-12-07T07:42:26;4.50;99.90
18456;DHT22;9357;49.900;8.208;2022-12-07T07:43:59;4.50;99.90
18456;DHT22;9357;49.900;8.208;2022-12-07T07:45:33;4.50;99.90
18456;DHT22;9357;49.900;8.208;2022-12-07T07:47:06;4.50;99.90
18456;DHT22;9357;49.900;8.208;2022-12-07T07:48:38;4.60;99.90
18456;DHT22;9357;49.900;8.208;2022-12-07T07:50:11;4.50;99.90
18456;DHT22;9357;49.900;8.208;2022-12-07T07:51:44;4.60;99.90
18456;DHT22;9357;49.900;8.208;2022-12-07T07:53:17;4.60;99.90
18456;DHT22;9357;49.900;8.208;2022-12-07T07:54:49;4.60;99.90
18456;DHT22;9357;49.900;8.208;2022-12-07T07:56:22;4.60;99.90
18456;DHT22;9357;49.900;8.208;2022-12-07T07:57:55;4.60;99.90
18456;DHT22;9357;49.900;8.208;2022-12-07T07:59:28;4.60;99.90
18456;DHT22;9357;49.900;8.208;2022-12-07T08:01:05;4.60;99.90
18456;DHT22;9357;49.900;8.208;2022-12-07T08:02:39;4.60;99.90
18456;DHT22;9357;49.900;8.208;2022-12-07T08:04:11;4.60;99.90
18456;DHT22;9357;49.900;8.208;2022-12-07T08:05:44;4.60;99.90
18456;DHT22;9357;49.900;8.208;2022-12-07T08:07:17;4.60;99.90
18456;DHT22;9357;49.900;8.208;2022-12-07T08:08:50;4.70;99.90
18456;DHT22;9357;49.900;8.208;2022-12-07T08:10:22;4.70;99.90
18456;DHT22;9357;49.900;8.208;2022-12-07T08:11:55;4.60;99.90
18456;DHT22;9357;49.900;8.208;2022-12-07T08:13:28;4.70;99.90
18456;DHT22;9357;49.900;8.208;2022-12-07T08:15:02;4.70;99.90
18456;DHT22;9357;49.900;8.208;2022-12-07T08:16:37;4.70;99.90
18456;DHT22;9357;49.900;8.208;2022-12-07T08:18:10;4.70;99.90
18456;DHT22;9357;49.900;8.208;2022-12-07T08:19:43;4.70;99.90
18456;DHT22;9357;49.900;8.208;2022-12-07T08:21:16;4.70;99.90
18456;DHT22;9357;49.900;8.208;2022-12-07T08:22:49;4.70;99.90
18456;DHT22;9357;49.900;8.208;2022-12-07T08:24:22;4.70;99.90
18456;DHT22;9357;49.900;8.208;2022-12-07T08:26:00;4.70;99.90
18456;DHT22;9357;49.900;8.208;2022-12-07T08:27:33;4.80;99.90
18456;DHT22;9357;49.900;8.208;2022-12-07T08:29:06;4.70;99.90
18456;DHT22;9357;49.900;8.208;2022-12-07T08:30:38;4.70;99.90
18456;DHT22;9357;49.900;8.208;2022-12-07T08:32:13;4.80;99.90
18456;DHT22;9357;49.900;8.208;2022-12-07T08:33:46;4.70;99.90
18456;DHT22;9357;49.900;8.208;2022-12-07T08:35:19;4.70;99.90
18456;DHT22;9357;49.900;8.208;2022-12-07T08:36:52;4.70;99.90
18456;DHT22;9357;49.900;8.208;2022-12-07T08:38:25;4.70;99.90
18456;DHT22;9357;49.900;8.208;2022-12-07T08:40:03;4.70;99.90
18456;DHT22;9357;49.900;8.208;2022-12-07T08:41:36;4.80;99.90
18456;DHT22;9357;49.900;8.208;2022-12-07T08:43:09;4.80;99.90
18456;DHT22;9357;49.900;8.208;2022-12-07T08:44:42;4.80;99.90
18456;DHT22;9357;49.900;8.208;2022-12-07T08:46:19;4.80;99.90
18456;DHT22;9357;49.900;8.208;2022-12-07T08:47:58;4.80;99.90
18456;DHT22;9357;49.900;8.208;2022-12-07T08:49:36;4.80;99.90
18456;DHT22;9357;49.900;8.208;2022-12-07T08:51:10;4.80;99.90
18456;DHT22;9357;49.900;8.208;2022-12-07T08:52:43;4.80;99.90
18456;DHT22;9357;49.900;8.208;2022-12-07T08:54:17;4.80;99.90
18456;DHT22;9357;49.900;8.208;2022-12-07T08:55:51;4.80;99.90
18456;DHT22;9357;49.900;8.208;2022-12-07T08:57:24;4.80;99.90
18456;DHT22;9357;49.900;8.208;2022-12-07T08:58:57;4.80;99.90
18456;DHT22;9357;49.900;8.208;2022-12-07T09:00:30;4.80;99.90
18456;DHT22;9357;49.900;8.208;2022-12-07T09:02:03;4.80;99.90
18456;DHT22;9357;49.900;8.208;2022-12-07T09:03:38;4.80;99.90
18456;DHT22;9357;49.900;8.208;2022-12-07T09:05:11;4.80;99.90
18456;DHT22;9357;49.900;8.208;2022-12-07T09:06:47;4.80;99.90
18456;DHT22;9357;49.900;8.208;2022-12-07T09:08:21;4.80;99.90
18456;DHT22;9357;49.900;8.208;2022-12-07T09:09:55;4.80;99.90
18456;DHT22;9357;49.900;8.208;2022-12-07T09:11:28;4.70;99.90
18456;DHT22;9357;49.900;8.208;2022-12-07T09:13:00;4.70;99.90
18456;DHT22;9357;49.900;8.208;2022-12-07T09:14:33;4.70;99.90
18456;DHT22;9357;49.900;8.208;2022-12-07T09:16:06;4.70;99.90
18456;DHT22;9357;49.900;8.208;2022-12-07T09:17:39;4.70;99.90
18456;DHT22;9357;49.900;8.208;2022-12-07T09:19:13;4.70;99.90
18456;DHT22;9357;49.900;8.208;2022-12-07T09:20:46;4.80;99.90
18456;DHT22;9357;49.900;8.208;2022-12-07T09:22:20;4.70;99.90
18456;DHT22;9357;49.900;8.208;2022-12-07T09:23:53;4.80;99.90
18456;DHT22;9357;49.900;8.208;2022-12-07T09:25:25;4.80;99.90
18456;DHT22;9357;49.900;8.208;2022-12-07T09:26:58;4.80;99.90
18456;DHT22;9357;49.900;8.208;2022-12-07T09:28:31;4.80;99.90
18456;DHT22;9357;49.900;8.208;2022-12-07T09:30:06;4.80;99.90
18456;DHT22;9357;49.900;8.208;2022-12-07T09:31:39;4.70;99.90
18456;DHT22;9357;49.900;8.208;2022-12-07T09:33:11;4.70;99.90
18456;DHT22;9357;49.900;8.208;2022-12-07T09:34:45;4.80;99.90
18456;DHT22;9357;49.900;8.208;2022-12-07T09:36:18;4.80;99.90
18456;DHT22;9357;49.900;8.208;2022-12-07T09:37:51;4.80;99.90
18456;DHT22;9357;49.900;8.208;2022-12-07T09:39:24;4.90;99.90
18456;DHT22;9357;49.900;8.208;2022-12-07T09:41:04;4.80;99.90
18456;DHT22;9357;49.900;8.208;2022-12-07T09:42:39;4.90;99.90
18456;DHT22;9357;49.900;8.208;2022-12-07T09:44:14;5.00;99.90
18456;DHT22;9357;49.900;8.208;2022-12-07T09:45:51;5.00;99.90
18456;DHT22;9357;49.900;8.208;2022-12-07T09:47:24;5.10;99.90
18456;DHT22;9357;49.900;8.208;2022-12-07T09:48:57;5.20;99.90
18456;DHT22;9357;49.900;8.208;2022-12-07T09:50:31;5.20;99.90
18456;DHT22;9357;49.900;8.208;2022-12-07T09:52:18;5.30;99.90
18456;DHT22;9357;49.900;8.208;2022-12-07T09:53:53;5.30;99.90
18456;DHT22;9357;49.900;8.208;2022-12-07T09:55:28;5.40;99.90
18456;DHT22;9357;49.900;8.208;2022-12-07T09:57:01;5.40;99.90
18456;DHT22;9357;49.900;8.208;2022-12-07T09:58:34;5.40;99.90
18456;DHT22;9357;49.900;8.208;2022-12-07T10:00:12;5.40;99.90
18456;DHT22;9357;49.900;8.208;2022-12-07T10:01:47;5.50;99.90
18456;DHT22;9357;49.900;8.208;2022-12-07T10:03:20;5.50;99.90
18456;DHT22;9357;49.900;8.208;2022-12-07T10:04:53;5.60;99.90
18456;DHT22;9357;49.900;8.208;2022-12-07T10:06:27;5.60;99.90
18456;DHT22;9357;49.900;8.208;2022-12-07T10:08:00;5.70;99.90
18456;DHT22;9357;49.900;8.208;2022-12-07T10:09:33;5.70;99.90
18456;DHT22;9357;49.900;8.208;2022-12-07T10:11:07;5.80;99.90
18456;DHT22;9357;49.900;8.208;2022-12-07T10:12:56;5.80;99.90
18456;DHT22;9357;49.900;8.208;2022-12-07T10:14:31;5.80;99.90
18456;DHT22;9357;49.900;8.208;2022-12-07T10:16:35;5.90;99.90
18456;DHT22;9357;49.900;8.208;2022-12-07T10:18:18;5.90;99.90
18456;DHT22;9357;49.900;8.208;2022-12-07T10:19:51;5.80;99.90
18456;DHT22;9357;49.900;8.208;2022-12-07T10:21:25;5.80;99.90